Groton, Connecticut
Current Conditions -  °F | °C
As of 10:05 AM on Saturday 20 Dec 2014 (Local Time) from KGON Reporting Station
Haze Haze  
Wind Chill: -5°   Ceiling: 3000
Heat Index: -1°   Visibility: 6mi
Dew Point: -5°   Wind: 8mph
Humidity: 75%   Direction: 20°NNE
Pressure: 30.27"   Gusts: NA
Location:  41.35°N, 72.07°W
Report Text: KGON 201505Z 02007KT 6SM HZ OVC030 M01/M05 A3027 RMK AO2 T10111050
Loading
Personal Weather Stations






























Interactive Weather Map New forecast layout! Learn more

10-Day Weather Forecast

Advertisements
Track Severe Weather on mobile